createdAt,value
2018-07-23T00:02:12.260Z,97102.41
2018-07-23T00:04:42.106Z,97095.47
2018-07-23T00:07:12.093Z,97096.06
2018-07-23T00:09:42.108Z,97094.20
2018-07-23T00:12:11.998Z,97085.23
2018-07-23T00:14:42.076Z,97088.87
2018-07-23T00:17:12.414Z,97080.88
2018-07-23T00:19:42.455Z,97078.99
2018-07-23T00:22:12.280Z,97074.02
2018-07-23T00:24:42.499Z,97072.10
2018-07-23T00:27:12.404Z,97065.16
2018-07-23T00:29:42.515Z,97068.63
2018-07-23T00:32:12.627Z,97058.30
2018-07-23T00:34:42.599Z,97062.16
2018-07-23T00:37:12.628Z,97060.16
2018-07-23T00:39:42.464Z,97058.47
2018-07-23T00:42:12.570Z,97055.97
2018-07-23T00:44:42.584Z,97043.85
2018-07-23T00:47:12.443Z,97040.31
2018-07-23T00:49:42.660Z,97036.19
2018-07-23T00:52:12.588Z,97033.31
2018-07-23T00:54:42.713Z,97024.89
2018-07-23T00:57:12.621Z,97015.98
2018-07-23T00:59:42.561Z,97014.08
2018-07-23T01:02:12.692Z,97009.01
2018-07-23T01:04:42.651Z,97006.11
2018-07-23T01:07:12.734Z,97003.30
2018-07-23T01:09:42.876Z,96992.95
2018-07-23T01:12:13.186Z,96979.93
2018-07-23T01:14:43.526Z,96982.08
2018-07-23T01:17:13.595Z,96973.97
2018-07-23T01:19:43.491Z,96969.22
2018-07-23T01:22:13.638Z,96969.22
2018-07-23T01:24:44.023Z,96975.66
2018-07-23T01:27:14.198Z,96976.22
2018-07-23T01:29:44.304Z,96986.12
2018-07-23T01:32:14.452Z,96988.53
2018-07-23T01:34:44.577Z,96987.00
2018-07-23T01:37:14.657Z,96994.55
2018-07-23T01:39:45.412Z,97001.50
2018-07-23T01:42:15.386Z,96997.63
2018-07-23T01:44:45.403Z,96996.02
2018-07-23T01:47:15.659Z,96998.91
2018-07-23T01:49:45.652Z,97007.62
2018-07-23T01:52:15.599Z,97017.59
2018-07-23T01:54:45.676Z,97010.42
2018-07-23T01:57:15.633Z,97014.70
2018-07-23T01:59:45.484Z,97008.90
2018-07-23T02:02:25.376Z,97015.19
2018-07-23T02:04:55.502Z,97009.62
2018-07-23T02:07:25.474Z,97008.73
2018-07-23T02:09:55.497Z,97004.63
2018-07-23T02:12:25.536Z,97017.59
2018-07-23T02:14:55.572Z,97032.27
2018-07-23T02:17:25.595Z,97037.42
2018-07-23T02:19:55.527Z,97039.99
2018-07-23T02:22:25.492Z,97046.13
2018-07-23T02:24:55.560Z,97047.56
2018-07-23T02:27:25.460Z,97058.51
2018-07-23T02:29:55.396Z,97068.02
2018-07-23T02:32:25.467Z,97067.73
2018-07-23T02:34:56.592Z,97065.95
2018-07-23T02:37:26.583Z,97065.08
2018-07-23T02:39:56.611Z,97062.25
2018-07-23T02:42:26.610Z,97054.21
2018-07-23T02:44:56.647Z,97047.06
2018-07-23T02:47:26.554Z,97044.08
2018-07-23T02:49:56.576Z,97039.90
2018-07-23T02:52:26.874Z,97031.71
2018-07-23T02:54:57.818Z,97011.79
2018-07-23T02:57:28.559Z,96989.61
2018-07-23T03:00:08.260Z,96978.61
2018-07-23T03:02:48.947Z,96978.25
2018-07-23T03:05:20.298Z,96979.16
2018-07-23T03:07:55.501Z,96981.05
2018-07-23T03:10:38.795Z,96972.34
2018-07-23T03:13:18.586Z,96975.11
2018-07-23T03:15:57.025Z,96991.55
2018-07-23T03:18:39.119Z,97001.19
2018-07-23T03:21:26.268Z,96989.98
2018-07-23T03:24:02.103Z,96970.76
2018-07-23T03:26:33.083Z,96963.91
2018-07-23T03:29:13.530Z,96966.03
2018-07-23T03:35:05.225Z,96972.52
2018-07-23T03:37:35.722Z,96973.67
2018-07-23T03:40:07.795Z,96963.67
2018-07-23T03:42:37.853Z,96958.44
2018-07-23T03:45:08.635Z,96955.32
2018-07-23T03:47:39.678Z,96957.73
2018-07-23T03:50:16.296Z,96949.64
2018-07-23T03:52:47.098Z,96943.30
2018-07-23T03:55:18.457Z,96939.97
2018-07-23T03:57:48.757Z,96937.06
2018-07-23T04:00:18.971Z,96946.86
2018-07-23T04:02:49.766Z,96948.12
2018-07-23T04:05:20.632Z,96945.17
2018-07-23T04:07:51.542Z,96940.58
2018-07-23T04:10:22.330Z,96944.66
2018-07-23T04:12:52.482Z,96941.79
2018-07-23T04:15:22.540Z,96935.22
2018-07-23T04:18:03.281Z,96929.17
2018-07-23T04:20:35.945Z,96926.36
2018-07-23T04:23:07.561Z,96936.19
2018-07-23T04:25:37.880Z,96944.69
2018-07-23T04:28:11.555Z,96937.56
2018-07-23T04:30:47.371Z,96948.50
2018-07-23T04:36:45.668Z,96949.80
2018-07-23T04:39:15.904Z,96932.39
2018-07-23T04:41:46.604Z,96957.12
2018-07-23T04:44:16.993Z,96955.54
2018-07-23T04:46:48.405Z,96965.63
2018-07-23T04:49:18.696Z,96965.24
2018-07-23T04:51:49.116Z,96974.20
2018-07-23T04:54:19.432Z,96978.18
2018-07-23T04:56:50.014Z,96969.25
2018-07-23T04:59:20.316Z,96979.20
2018-07-23T05:01:50.662Z,96984.89
2018-07-23T05:04:20.688Z,96980.70
2018-07-23T05:06:51.866Z,96985.80
2018-07-23T05:09:23.203Z,96993.36
2018-07-23T05:11:53.506Z,97000.45
2018-07-23T05:14:23.887Z,97008.45
2018-07-23T05:16:54.200Z,97008.72
2018-07-23T05:19:24.972Z,97010.77
2018-07-23T05:22:09.364Z,97017.23
2018-07-23T05:24:40.225Z,97023.53
2018-07-23T05:27:10.894Z,97020.06
2018-07-23T05:29:41.259Z,97017.77
2018-07-23T05:32:11.995Z,97017.43
2018-07-23T05:34:42.435Z,97019.98
2018-07-23T05:37:12.693Z,97019.88
2018-07-23T05:39:42.966Z,97011.55
2018-07-23T05:42:13.378Z,97008.52
2018-07-23T05:44:43.944Z,96997.77
2018-07-23T05:47:14.109Z,96997.00
2018-07-23T05:49:44.892Z,96989.95
2018-07-23T05:52:15.136Z,96992.95
2018-07-23T05:54:45.043Z,96991.95
2018-07-23T05:57:15.244Z,96991.06
2018-07-23T05:59:45.392Z,96979.98
2018-07-23T06:02:15.805Z,96974.85
2018-07-23T06:04:46.143Z,96973.41
2018-07-23T06:07:16.452Z,96971.70
2018-07-23T06:09:46.776Z,96970.52
2018-07-23T06:12:17.182Z,96957.75
2018-07-23T06:14:47.437Z,96959.45
2018-07-23T06:17:17.753Z,96960.87
2018-07-23T06:19:48.877Z,96959.17
2018-07-23T06:22:24.091Z,96960.14
2018-07-23T06:24:54.590Z,96953.96
2018-07-23T06:27:24.883Z,96957.61
2018-07-23T06:29:56.274Z,96949.88
2018-07-23T06:32:26.600Z,96946.53
2018-07-23T06:34:59.720Z,96947.00
2018-07-23T06:37:35.780Z,96945.74
2018-07-23T06:40:31.002Z,96939.08
2018-07-23T06:43:01.900Z,96948.23
2018-07-23T06:45:33.155Z,96930.09
2018-07-23T06:48:19.890Z,96944.63
2018-07-23T06:50:51.434Z,96939.16
2018-07-23T06:53:21.962Z,96951.34
2018-07-23T06:55:52.631Z,96936.33
2018-07-23T06:58:22.732Z,96946.70
2018-07-23T07:00:53.365Z,96951.77
2018-07-23T07:03:24.937Z,96961.63
2018-07-23T07:05:56.641Z,96966.81
2018-07-23T07:08:26.928Z,96970.14
2018-07-23T07:10:57.191Z,96963.38
2018-07-23T07:13:30.076Z,96966.45
2018-07-23T07:16:00.055Z,96965.55
2018-07-23T07:18:30.118Z,96973.92
2018-07-23T07:21:00.771Z,96972.03
2018-07-23T07:26:42.138Z,96972.99
2018-07-23T07:29:13.975Z,96976.28
2018-07-23T07:31:43.953Z,96976.06
2018-07-23T07:34:13.910Z,96976.72
2018-07-23T07:36:43.916Z,96987.78
2018-07-23T07:39:14.220Z,96982.73
2018-07-23T07:41:44.783Z,96994.68
2018-07-23T07:44:16.061Z,96997.47
2018-07-23T07:46:46.213Z,97002.36
2018-07-23T07:49:16.244Z,97000.08
2018-07-23T07:51:46.268Z,96999.97
2018-07-23T07:54:16.419Z,97003.48
2018-07-23T07:56:46.368Z,97003.39
2018-07-23T07:59:16.386Z,97012.10
2018-07-23T08:01:46.350Z,97010.72
2018-07-23T08:04:16.511Z,97012.39
2018-07-23T08:07:24.407Z,97008.75
2018-07-23T08:09:54.395Z,97008.07
2018-07-23T08:12:25.294Z,97011.42
2018-07-23T08:14:55.385Z,97008.09
2018-07-23T08:17:25.526Z,97017.45
2018-07-23T08:19:55.757Z,97028.55
2018-07-23T08:22:25.933Z,97031.51
2018-07-23T08:24:56.086Z,97030.56
2018-07-23T08:27:26.172Z,97025.17
2018-07-23T08:29:56.238Z,97028.80
2018-07-23T08:32:26.320Z,97025.31
2018-07-23T08:34:56.355Z,97019.56
2018-07-23T08:37:26.302Z,97017.01
2018-07-23T08:39:56.343Z,97026.11
2018-07-23T08:42:26.305Z,97017.91
2018-07-23T08:44:56.521Z,97009.88
2018-07-23T08:47:26.608Z,97018.11
2018-07-23T08:49:56.860Z,97014.39
2018-07-23T08:52:26.951Z,97011.72
2018-07-23T08:54:57.053Z,97007.32
2018-07-23T08:57:27.097Z,97016.81
2018-07-23T08:59:57.137Z,97015.39
2018-07-23T09:02:27.335Z,97010.36
2018-07-23T09:04:57.573Z,97000.01
2018-07-23T09:07:27.900Z,96997.05
2018-07-23T09:09:58.180Z,96998.50
2018-07-23T09:12:28.448Z,97000.53
2018-07-23T09:14:58.697Z,97002.09
2018-07-23T09:17:28.727Z,97003.20
2018-07-23T09:19:58.720Z,97001.88
2018-07-23T09:22:28.823Z,97000.56
2018-07-23T09:24:58.939Z,97001.95
2018-07-23T09:27:28.869Z,96992.34
2018-07-23T09:29:58.804Z,97005.87
2018-07-23T09:32:28.692Z,96998.17
2018-07-23T09:34:58.740Z,96999.34
2018-07-23T09:37:28.740Z,97008.64
2018-07-23T09:39:58.660Z,97000.47
2018-07-23T09:42:29.500Z,97000.96
2018-07-23T09:44:59.667Z,96997.39
2018-07-23T09:47:29.627Z,97001.12
2018-07-23T09:49:59.590Z,96987.64
2018-07-23T09:52:29.495Z,96987.60
2018-07-23T09:55:00.442Z,96986.81
2018-07-23T09:57:31.437Z,96982.81
2018-07-23T10:00:02.185Z,96984.70
2018-07-23T10:02:32.346Z,96983.09
2018-07-23T10:05:08.013Z,96976.39
2018-07-23T10:07:38.405Z,96958.97
2018-07-23T10:10:09.668Z,96980.73
2018-07-23T10:12:39.742Z,96977.69
2018-07-23T10:15:10.493Z,96980.43
2018-07-23T10:17:40.344Z,96973.09
2018-07-23T10:20:10.573Z,96966.02
2018-07-23T10:22:41.564Z,96976.05
2018-07-23T10:25:15.545Z,96978.23
2018-07-23T10:27:50.066Z,96980.22
2018-07-23T10:30:26.411Z,96972.12
2018-07-23T10:32:57.720Z,96972.41
2018-07-23T10:35:27.855Z,96979.36
2018-07-23T10:37:58.097Z,96976.20
2018-07-23T10:40:28.756Z,96979.52
2018-07-23T10:42:59.333Z,96986.50
2018-07-23T10:45:32.321Z,96985.81
2018-07-23T10:48:06.759Z,96986.28
2018-07-23T10:50:36.792Z,96976.23
2018-07-23T10:53:22.401Z,96980.03
2018-07-23T10:55:52.636Z,96982.48
2018-07-23T10:58:25.439Z,96971.64
2018-07-23T11:00:55.526Z,96982.66
2018-07-23T11:03:26.536Z,96980.36
2018-07-23T11:05:59.440Z,96981.92
2018-07-23T11:08:30.671Z,96972.09
2018-07-23T11:11:00.819Z,96974.68
2018-07-23T11:13:31.037Z,96972.09
2018-07-23T11:16:03.269Z,96978.24
2018-07-23T11:18:33.396Z,96977.07
2018-07-23T11:21:03.478Z,96972.61
2018-07-23T11:23:33.565Z,96976.53
2018-07-23T11:26:03.696Z,96966.87
2018-07-23T11:28:33.670Z,96979.53
2018-07-23T11:31:03.921Z,96967.75
2018-07-23T11:33:33.891Z,96969.53
2018-07-23T11:36:04.061Z,96969.93
2018-07-23T11:38:34.037Z,96973.14
2018-07-23T11:41:04.228Z,96976.02
2018-07-23T11:43:35.027Z,96972.34
2018-07-23T11:46:05.839Z,96976.73
2018-07-23T11:48:36.118Z,96975.09
2018-07-23T11:51:06.713Z,96965.98
2018-07-23T11:53:36.726Z,96960.14
2018-07-23T11:56:08.051Z,96958.34
2018-07-23T11:58:38.338Z,96965.75
2018-07-23T12:01:09.438Z,96956.88
2018-07-23T12:03:39.511Z,96969.81
2018-07-23T12:06:10.505Z,96963.09
2018-07-23T12:08:40.562Z,96969.70
2018-07-23T12:11:10.961Z,96968.90
2018-07-23T12:13:40.853Z,96966.96
2018-07-23T12:16:11.062Z,96976.91
2018-07-23T12:18:41.069Z,96968.78
2018-07-23T12:21:11.303Z,96983.69
2018-07-23T12:23:41.541Z,96978.16
2018-07-23T12:26:11.785Z,96978.98
2018-07-23T12:28:41.773Z,96987.45
2018-07-23T12:31:11.746Z,96978.42
2018-07-23T12:33:41.760Z,96981.70
2018-07-23T12:36:11.886Z,96979.56
2018-07-23T12:38:41.964Z,96980.68
2018-07-23T12:41:12.224Z,96978.86
2018-07-23T12:43:42.984Z,96973.93
2018-07-23T12:46:13.004Z,96987.59
2018-07-23T12:48:43.273Z,96979.79
2018-07-23T12:51:13.806Z,96985.95
2018-07-23T12:53:45.250Z,96993.09
2018-07-23T12:56:15.416Z,96993.86
2018-07-23T12:58:50.256Z,96977.86
2018-07-23T13:01:20.621Z,97000.13
2018-07-23T13:03:50.639Z,96983.31
2018-07-23T13:06:20.916Z,96987.12
2018-07-23T13:08:51.233Z,97008.59
2018-07-23T13:32:33.476Z,96995.78
2018-07-23T13:35:07.924Z,97001.34
2018-07-23T13:37:38.883Z,96994.45
2018-07-23T13:40:17.932Z,96998.99
2018-07-23T13:42:52.313Z,96993.62
2018-07-23T13:45:23.808Z,96999.55
2018-07-23T13:47:54.252Z,97003.66
2018-07-23T13:50:26.216Z,96976.48
2018-07-23T13:52:56.532Z,96994.88
2018-07-23T13:55:28.747Z,96995.34
2018-07-23T13:57:59.857Z,96996.72
2018-07-23T14:00:29.892Z,96998.37
2018-07-23T14:03:00.176Z,96985.80
2018-07-23T14:05:30.203Z,97003.93
2018-07-23T14:08:00.236Z,96993.06
2018-07-23T14:10:31.999Z,96988.03
2018-07-23T14:13:02.095Z,96989.09
2018-07-23T14:15:32.200Z,97001.16
2018-07-23T14:18:02.173Z,97005.31
2018-07-23T14:20:32.172Z,97004.36
2018-07-23T14:23:08.453Z,96999.67
2018-07-23T14:25:38.482Z,97006.96
2018-07-23T14:28:09.240Z,97005.87
2018-07-23T14:30:39.313Z,97012.28
2018-07-23T14:33:10.047Z,97005.95
2018-07-23T14:35:40.093Z,97010.62
2018-07-23T14:38:11.365Z,97013.89
2018-07-23T14:40:41.293Z,97021.69
2018-07-23T14:43:11.376Z,97018.45
2018-07-23T14:45:41.321Z,97011.95
2018-07-23T14:48:11.288Z,97014.72
2018-07-23T14:50:41.248Z,97007.98
2018-07-23T14:53:11.114Z,97006.16
2018-07-23T14:55:41.051Z,97016.08
2018-07-23T14:58:11.049Z,97016.14
2018-07-23T15:00:41.128Z,97024.51
2018-07-23T15:03:11.126Z,97028.20
2018-07-23T15:05:41.001Z,97014.00
2018-07-23T15:08:11.246Z,97027.53
2018-07-23T15:10:50.604Z,97022.55
2018-07-23T15:13:30.972Z,97015.09
2018-07-23T15:16:00.907Z,97031.66
2018-07-23T15:18:30.923Z,97027.66
2018-07-23T15:21:00.760Z,97033.03
2018-07-23T15:23:30.674Z,97036.45
2018-07-23T15:26:00.802Z,97039.37
2018-07-23T15:28:30.772Z,97032.77
2018-07-23T15:31:00.811Z,97038.27
2018-07-23T15:33:30.860Z,97036.00
2018-07-23T15:36:00.696Z,97029.31
2018-07-23T15:38:31.466Z,97028.50
2018-07-23T15:47:32.961Z,97029.31
2018-07-23T15:50:24.838Z,97023.31
2018-07-23T15:52:56.933Z,97034.86
2018-07-23T15:55:27.057Z,97039.19
2018-07-23T15:57:56.915Z,97052.64
2018-07-23T16:00:28.173Z,97047.88
2018-07-23T16:03:05.880Z,97045.89
2018-07-23T16:05:36.745Z,97050.14
2018-07-23T16:08:06.887Z,97052.14
2018-07-23T16:10:39.240Z,97052.08
2018-07-23T16:13:09.841Z,97051.01
2018-07-23T16:15:39.714Z,97049.02
2018-07-23T16:18:12.017Z,97043.21
2018-07-23T16:20:42.261Z,97049.39
2018-07-23T16:23:12.218Z,97056.20
2018-07-23T16:25:42.869Z,97042.92
2018-07-23T16:28:14.099Z,97052.13
2018-07-23T16:30:45.428Z,97053.67
2018-07-23T16:33:24.048Z,97044.84
2018-07-23T16:36:05.728Z,97062.52
2018-07-23T16:38:44.990Z,97051.36
2018-07-23T16:41:25.112Z,97052.30
2018-07-23T16:43:55.749Z,97054.27
2018-07-23T16:46:26.222Z,97053.59
2018-07-23T16:48:56.233Z,97056.03
2018-07-23T16:51:26.256Z,97053.60
2018-07-23T16:53:56.248Z,97055.89
2018-07-23T16:56:26.386Z,97063.14
2018-07-23T16:58:56.498Z,97059.02
2018-07-23T17:01:26.529Z,97048.58
2018-07-23T17:04:05.706Z,97060.75
2018-07-23T17:06:36.884Z,97059.52
2018-07-23T17:09:11.242Z,97061.14
2018-07-23T17:11:41.383Z,97059.06
2018-07-23T17:14:11.414Z,97057.82
2018-07-23T17:16:41.342Z,97055.52
2018-07-23T17:19:11.306Z,97057.25
2018-07-23T17:21:51.042Z,97057.61
2018-07-23T17:24:22.153Z,97063.02
2018-07-23T17:26:52.008Z,97064.50
2018-07-23T17:29:21.856Z,97064.50
2018-07-23T17:31:51.993Z,97065.88
2018-07-23T17:34:22.234Z,97067.27
2018-07-23T17:36:52.416Z,97064.19
2018-07-23T17:39:22.459Z,97073.05
2018-07-23T17:41:52.443Z,97074.18
2018-07-23T17:44:23.154Z,97066.75
2018-07-23T17:46:53.153Z,97064.91
2018-07-23T17:49:23.176Z,97077.62
2018-07-23T17:51:53.226Z,97070.76
2018-07-23T17:54:23.316Z,97075.56
2018-07-23T17:56:53.259Z,97076.83
2018-07-23T17:59:23.123Z,97081.55
2018-07-23T18:01:53.011Z,97075.56
2018-07-23T18:04:24.980Z,97086.47
2018-07-23T18:06:54.912Z,97083.38
2018-07-23T18:09:24.903Z,97085.01
2018-07-23T18:11:54.951Z,97093.38
2018-07-23T18:14:24.949Z,97095.78
2018-07-23T18:16:54.817Z,97096.11
2018-07-23T18:19:24.854Z,97104.60
2018-07-23T18:21:54.862Z,97101.05
2018-07-23T18:24:24.822Z,97113.88
2018-07-23T18:26:54.892Z,97106.56
2018-07-23T18:29:25.206Z,97110.69
2018-07-23T18:31:55.525Z,97117.57
2018-07-23T18:34:26.333Z,97126.84
2018-07-23T18:36:56.871Z,97131.44
2018-07-23T18:39:26.793Z,97133.44
2018-07-23T18:46:30.472Z,97134.87
2018-07-23T18:49:22.677Z,97137.97
2018-07-23T18:51:53.880Z,97141.75
2018-07-23T18:54:25.125Z,97145.66
2018-07-23T18:56:56.371Z,97134.23
2018-07-23T18:59:26.524Z,97155.46
2018-07-23T19:01:57.292Z,97163.58
2018-07-23T19:04:27.268Z,97160.87
2018-07-23T19:06:57.198Z,97173.66
2018-07-23T19:09:28.512Z,97173.02
2018-07-23T19:11:59.094Z,97181.90
2018-07-23T19:14:29.154Z,97177.72
2018-07-23T19:17:00.061Z,97178.36
2018-07-23T19:19:30.576Z,97175.98
2018-07-23T19:22:00.652Z,97180.70
2018-07-23T19:24:30.736Z,97186.83
2018-07-23T19:27:01.017Z,97188.09
2018-07-23T19:29:36.006Z,97195.20
2018-07-23T19:32:06.141Z,97198.55
2018-07-23T19:34:36.246Z,97203.20
2018-07-23T19:37:06.455Z,97211.77
2018-07-23T19:39:36.911Z,97219.53
2018-07-23T19:42:08.601Z,97218.87
2018-07-23T19:44:38.656Z,97218.66
2018-07-23T19:47:09.943Z,97224.55
2018-07-23T19:49:40.111Z,97218.17
2018-07-23T19:52:10.790Z,97215.84
2018-07-23T19:54:49.927Z,97217.73
2018-07-23T19:57:26.698Z,97218.63
2018-07-23T19:59:57.794Z,97222.52
2018-07-23T20:02:27.734Z,97220.66
2018-07-23T20:04:57.746Z,97210.05
2018-07-23T20:07:27.907Z,97218.70
2018-07-23T20:10:11.345Z,97222.52
2018-07-23T20:34:23.839Z,97208.75
2018-07-23T20:37:19.232Z,97214.89
2018-07-23T20:40:04.113Z,97218.26
2018-07-23T20:42:35.689Z,97219.24
2018-07-23T20:45:05.772Z,97225.11
2018-07-23T20:47:36.667Z,97226.48
2018-07-23T20:50:35.564Z,97227.41
2018-07-23T20:53:11.031Z,97231.58
2018-07-23T20:59:23.023Z,97234.09
2018-07-23T21:01:56.916Z,97230.14
2018-07-23T21:10:22.329Z,97228.02
2018-07-23T21:12:52.643Z,97228.34
2018-07-23T21:16:11.577Z,97229.23
2018-07-23T21:19:08.222Z,97229.72
2018-07-23T21:22:09.755Z,97232.13
2018-07-23T21:24:48.320Z,97234.71
2018-07-23T21:27:25.047Z,97230.53
2018-07-23T21:29:57.163Z,97236.83
2018-07-23T21:32:30.840Z,97235.52
2018-07-23T21:35:03.150Z,97236.39
2018-07-23T21:43:36.783Z,97239.73
2018-07-23T21:46:12.107Z,97236.08
2018-07-23T21:48:52.433Z,97245.61
2018-07-23T21:51:42.251Z,97238.10
2018-07-23T21:54:20.595Z,97230.05
2018-07-23T21:56:51.912Z,97233.02
2018-07-23T21:59:26.129Z,97234.16
2018-07-23T22:01:57.497Z,97230.53
2018-07-23T22:04:29.764Z,97237.55
2018-07-23T22:07:00.636Z,97236.00
2018-07-23T22:09:31.422Z,97234.63
2018-07-23T22:12:11.901Z,97236.40
2018-07-23T22:14:45.613Z,97240.03
2018-07-23T22:17:16.964Z,97236.66
2018-07-23T22:19:53.857Z,97238.02
2018-07-23T22:22:24.907Z,97239.63
2018-07-23T22:25:07.774Z,97235.82
2018-07-23T22:27:52.563Z,97233.44
2018-07-23T22:30:26.919Z,97232.91
2018-07-23T22:33:11.775Z,97236.35
2018-07-23T22:35:43.140Z,97230.30
2018-07-23T22:41:07.020Z,97231.52
2018-07-23T22:43:39.281Z,97230.70
2018-07-23T22:46:17.548Z,97228.70
2018-07-23T22:48:48.168Z,97227.09
2018-07-23T22:51:25.096Z,97221.63
2018-07-23T22:54:12.161Z,97220.66
2018-07-23T22:56:43.642Z,97215.73
2018-07-23T22:59:14.283Z,97212.42
2018-07-23T23:01:44.746Z,97213.55
2018-07-23T23:04:15.716Z,97216.84
2018-07-23T23:06:46.208Z,97206.86
2018-07-23T23:09:22.299Z,97217.52
2018-07-23T23:11:53.067Z,97212.21
2018-07-23T23:14:32.997Z,97211.53
2018-07-23T23:17:04.887Z,97205.24
2018-07-23T23:19:37.663Z,97213.33
2018-07-23T23:22:08.619Z,97218.08
2018-07-23T23:24:38.620Z,97212.23
2018-07-23T23:27:11.034Z,97211.16
2018-07-23T23:29:42.031Z,97210.19
2018-07-23T23:32:15.660Z,97214.38
2018-07-23T23:34:46.080Z,97212.70
2018-07-23T23:38:28.639Z,97212.56
2018-07-23T23:41:07.179Z,97214.30
2018-07-23T23:43:37.558Z,97215.16
2018-07-23T23:46:10.448Z,97218.41
2018-07-23T23:48:40.701Z,97219.41
2018-07-23T23:51:11.196Z,97213.70
2018-07-23T23:53:41.293Z,97213.33
2018-07-23T23:56:11.926Z,97215.30
2018-07-23T23:58:49.201Z,97221.82
